Time;durP1;ratioP1;P1;durP2;ratioP2;P2;SDS_P1;SDS_P2;PMS_P1;PMS_P2;Temp;Humidity;BMP_temperature;BMP_pressure;BME280_temperature;BME280_humidity;BME280_pressure;Samples;Min_cycle;Max_cycle;Signal;HPM_P1;HPM_P2
2022/06/16 04:53:40;;;;;;;13.23;7.25;;;13.60;94.70;;;;;;6271501;22;20023;-70
2022/06/16 05:00:51;;;;;;;9.57;6.80;;;13.80;94.70;;;;;;6123142;23;20033;-71
2022/06/16 05:36:31;;;;;;;8.25;4.00;;;16.20;90.10;;;;;;6265901;22;20027;-74
2022/06/16 05:38:57;;;;;;;6.85;3.97;;;16.30;89.90;;;;;;6234358;22;20015;-76
2022/06/16 05:41:22;;;;;;;7.07;3.42;;;16.40;89.00;;;;;;6249763;22;20019;-74
2022/06/16 05:43:48;;;;;;;8.35;3.55;;;16.60;89.10;;;;;;6272186;22;20016;-76
2022/06/16 05:46:20;;;;;;;12.05;3.58;;;16.70;88.40;;;;;;6275512;22;20003;-76
2022/06/16 05:48:55;;;;;;;10.73;3.35;;;16.80;86.70;;;;;;6262814;22;20048;-74
2022/06/16 05:51:22;;;;;;;19.73;3.63;;;16.90;87.10;;;;;;6240156;22;20008;-76
2022/06/16 05:53:48;;;;;;;39.20;4.78;;;17.10;86.80;;;;;;6225442;22;20026;-76
2022/06/16 05:56:14;;;;;;;28.88;4.30;;;17.20;86.20;;;;;;6225193;22;20055;-76
2022/06/16 05:58:42;;;;;;;24.05;3.95;;;17.30;85.60;;;;;;6225170;22;20076;-78
2022/06/16 06:01:13;;;;;;;11.00;3.30;;;17.60;84.90;;;;;;6225236;22;20023;-76
2022/06/16 06:03:41;;;;;;;10.80;2.70;;;17.80;85.00;;;;;;6250068;22;20461;-75
2022/06/16 06:06:07;;;;;;;13.43;2.63;;;17.90;83.10;;;;;;6224449;22;20027;-80
2022/06/16 06:16:54;;;;;;;;;;;18.30;81.80;;;;;;6252162;22;20024;-78
2022/06/16 06:19:28;;;;;;;7.90;2.80;;;18.40;80.20;;;;;;6226291;22;19911;-78
2022/06/16 06:22:13;;;;;;;8.10;3.15;;;18.60;79.90;;;;;;6251718;22;20015;-77
2022/06/16 06:24:48;;;;;;;34.58;3.88;;;18.80;79.30;;;;;;6251647;22;20015;-73
2022/06/16 06:27:15;;;;;;;13.88;3.00;;;19.00;79.50;;;;;;6278564;22;20027;-72
2022/06/16 06:29:43;;;;;;;7.35;2.50;;;19.10;79.30;;;;;;6226221;22;20098;-72
2022/06/16 06:32:11;;;;;;;8.02;2.78;;;19.30;77.50;;;;;;6278418;22;20031;-74
2022/06/16 06:34:37;;;;;;;8.15;2.38;;;19.20;77.20;;;;;;6250703;22;20403;-72
2022/06/16 06:37:03;;;;;;;;;;;19.20;77.80;;;;;;6279027;22;20079;-72
2022/06/16 06:39:29;;;;;;;5.50;1.88;;;19.20;73.70;;;;;;6278575;22;19915;-73
2022/06/16 06:41:54;;;;;;;7.70;2.58;;;19.30;76.50;;;;;;6225893;22;20450;-74
2022/06/16 06:44:20;;;;;;;6.28;2.47;;;19.50;75.80;;;;;;6251582;22;20090;-75
2022/06/16 06:46:46;;;;;;;9.32;2.30;;;19.70;75.20;;;;;;6251246;22;20508;-77
2022/06/16 06:49:12;;;;;;;6.45;2.17;;;19.90;74.90;;;;;;6201457;22;20020;-76
2022/06/16 06:55:15;;;;;;;5.10;1.70;;;19.70;74.30;;;;;;6250036;22;20022;-76
2022/06/16 06:58:07;;;;;;;5.57;1.70;;;19.70;72.60;;;;;;6250789;22;20054;-75
2022/06/16 07:00:33;;;;;;;5.30;1.83;;;19.70;71.60;;;;;;6225914;22;20435;-75
2022/06/16 07:03:11;;;;;;;4.47;2.00;;;20.00;73.50;;;;;;6250801;22;20007;-75
2022/06/16 07:05:49;;;;;;;6.30;2.17;;;20.40;71.60;;;;;;6200710;22;20026;-75
2022/06/16 07:08:15;;;;;;;6.90;2.30;;;20.40;69.20;;;;;;6225920;22;20016;-75
2022/06/16 07:10:41;;;;;;;6.75;2.38;;;20.30;68.70;;;;;;6250469;22;20015;-75
2022/06/16 07:13:07;;;;;;;3.58;1.70;;;20.30;69.00;;;;;;6265305;22;20012;-76
2022/06/16 07:15:34;;;;;;;6.45;2.00;;;20.30;69.40;;;;;;6266465;22;20015;-76
2022/06/16 07:18:00;;;;;;;5.78;2.20;;;20.70;70.10;;;;;;6226312;22;20069;-74
2022/06/16 07:20:26;;;;;;;6.95;2.13;;;21.00;69.40;;;;;;6226235;22;20020;-76
2022/06/16 07:22:51;;;;;;;7.55;1.90;;;21.10;68.70;;;;;;6250264;22;20430;-76
2022/06/16 07:25:18;;;;;;;11.82;2.50;;;21.30;67.90;;;;;;6226686;22;20290;-79
2022/06/16 07:27:44;;;;;;;9.40;2.40;;;21.30;66.30;;;;;;6250813;22;20016;-74
2022/06/16 07:30:15;;;;;;;4.85;2.10;;;21.40;65.70;;;;;;6225497;22;20022;-78
2022/06/16 07:32:42;;;;;;;7.15;2.40;;;21.50;65.30;;;;;;6250965;22;20437;-79
2022/06/16 07:35:12;;;;;;;4.03;1.80;;;21.70;65.10;;;;;;6225091;22;20458;-79
2022/06/16 07:38:49;;;;;;;;;;;;;;;;;;;;;
2022/06/16 07:48:23;;;;;;;8.27;2.00;;;22.30;61.90;;;;;;6277574;22;20091;-79
2022/06/16 07:52:03;;;;;;;6.38;2.13;;;22.50;60.90;;;;;;6276781;22;20537;-78
2022/06/16 07:54:29;;;;;;;8.10;2.40;;;22.70;58.10;;;;;;6234352;22;20088;-77
2022/06/16 07:56:56;;;;;;;3.92;1.90;;;22.80;60.70;;;;;;6228369;22;20012;-79
2022/06/16 07:59:22;;;;;;;5.22;1.65;;;22.80;60.70;;;;;;6267781;22;20027;-77
2022/06/16 08:01:51;;;;;;;6.05;2.10;;;22.70;59.90;;;;;;6278992;22;20077;-76
2022/06/16 08:08:05;;;;;;;9.43;2.07;;;22.50;58.70;;;;;;6139268;23;20045;-79
2022/06/16 08:10:35;;;;;;;4.93;1.98;;;22.50;58.80;;;;;;6101655;23;20018;-80
2022/06/16 08:13:04;;;;;;;4.75;2.17;;;22.50;58.40;;;;;;6077263;23;20014;-81
2022/06/16 08:15:33;;;;;;;9.10;2.25;;;22.60;58.40;;;;;;6077401;23;20341;-81
2022/06/16 08:17:59;;;;;;;7.00;2.00;;;22.60;57.60;;;;;;6077622;23;20445;-81
2022/06/16 08:20:25;;;;;;;;;;;22.70;57.50;;;;;;6102004;23;20060;-81
2022/06/16 08:22:59;;;;;;;8.52;2.47;;;22.60;55.20;;;;;;6076980;23;19913;-83
2022/06/16 08:25:29;;;;;;;12.18;2.30;;;22.50;56.80;;;;;;6077797;23;20043;-81
2022/06/16 08:27:55;;;;;;;8.32;2.28;;;22.50;57.60;;;;;;6077308;23;20049;-80
2022/06/16 08:30:21;;;;;;;;;;;22.80;57.50;;;;;;6102268;23;20018;-80
2022/06/16 08:32:47;;;;;;;7.10;2.20;;;23.00;57.10;;;;;;6076998;23;20003;-80
2022/06/16 08:35:13;;;;;;;;;;;23.00;57.80;;;;;;6077214;23;20018;-79
2022/06/16 08:37:42;;;;;;;7.72;2.33;;;23.00;56.20;;;;;;6079683;23;19912;-81
2022/06/16 08:40:09;;;;;;;4.65;2.00;;;23.00;56.40;;;;;;6082262;23;20014;-82
2022/06/16 08:42:51;;;;;;;6.05;2.58;;;23.10;56.00;;;;;;6103376;23;20076;-81
2022/06/16 08:45:23;;;;;;;6.07;2.50;;;23.10;54.90;;;;;;6077055;23;20014;-77
2022/06/16 08:48:29;;;;;;;6.88;2.55;;;22.80;54.80;;;;;;6077232;23;20437;-77
2022/06/16 08:51:05;;;;;;;6.20;2.00;;;23.10;54.70;;;;;;6101167;23;20097;-76
2022/06/16 08:53:48;;;;;;;6.10;2.17;;;23.10;55.30;;;;;;6076543;23;20054;-78
2022/06/16 08:56:34;;;;;;;7.47;2.05;;;23.20;55.40;;;;;;6101150;23;20014;-77
2022/06/16 08:59:15;;;;;;;4.65;2.20;;;23.40;55.40;;;;;;6101279;23;20078;-77
2022/06/16 09:01:54;;;;;;;7.30;2.65;;;23.40;55.30;;;;;;6101826;23;20323;-77
2022/06/16 09:04:25;;;;;;;10.05;2.35;;;23.30;55.00;;;;;;6077741;23;20018;-74
2022/06/16 09:07:27;;;;;;;7.20;2.83;;;23.60;54.60;;;;;;6077470;23;20076;-78
2022/06/16 09:10:14;;;;;;;9.70;2.35;;;23.40;53.20;;;;;;6048847;23;20018;-77
2022/06/16 09:13:04;;;;;;;4.78;1.85;;;23.60;53.60;;;;;;6100853;23;20080;-77
2022/06/16 09:15:49;;;;;;;7.47;2.10;;;23.70;53.90;;;;;;6100861;23;20061;-76
2022/06/16 09:18:43;;;;;;;10.55;2.50;;;23.90;54.60;;;;;;6124127;23;20014;-79
2022/06/16 09:21:14;;;;;;;7.00;2.28;;;24.00;53.20;;;;;;6076922;23;20385;-78
2022/06/16 09:24:05;;;;;;;6.57;2.17;;;23.80;54.20;;;;;;6100465;23;20459;-75
2022/06/16 09:31:16;;;;;;;6.97;2.10;;;24.00;54.90;;;;;;6126888;23;20168;-79
2022/06/16 09:34:54;;;;;;;;;;;;;;;;;;;;;
2022/06/16 09:49:44;;;;;;;6.00;2.83;;;23.70;53.90;;;;;;5915301;24;20021;-79
2022/06/16 09:56:46;;;;;;;12.18;3.47;;;23.50;54.10;;;;;;5942075;24;20441;-81
2022/06/16 09:59:22;;;;;;;9.38;3.47;;;23.60;55.30;;;;;;5968756;24;20017;-81
2022/06/16 10:01:58;;;;;;;9.23;3.15;;;23.80;55.10;;;;;;6083125;23;20402;-80
2022/06/16 10:04:32;;;;;;;5.90;2.30;;;24.20;55.90;;;;;;6081895;23;20010;-80
2022/06/16 10:07:58;;;;;;;4.70;2.10;;;24.30;54.10;;;;;;6127014;23;20325;-78
2022/06/16 10:10:36;;;;;;;5.03;2.22;;;24.60;53.30;;;;;;6130942;23;20014;-80
2022/06/16 10:13:45;;;;;;;9.95;2.60;;;24.70;53.20;;;;;;6131540;23;20440;-79
2022/06/16 10:16:28;;;;;;;7.03;2.30;;;25.00;52.60;;;;;;6156738;23;20049;-79
2022/06/16 10:18:56;;;;;;;8.77;2.50;;;25.00;52.70;;;;;;6131198;23;20439;-79
2022/06/16 10:21:34;;;;;;;5.20;2.28;;;25.00;52.30;;;;;;6133191;23;20025;-80
2022/06/16 10:24:04;;;;;;;6.55;2.22;;;24.70;52.20;;;;;;6105653;23;20017;-79
2022/06/16 10:26:30;;;;;;;8.52;2.42;;;24.60;53.00;;;;;;6155342;23;20017;-79
2022/06/16 10:28:59;;;;;;;;;;;24.50;54.30;;;;;;6130852;23;20017;-76
2022/06/16 10:31:41;;;;;;;6.00;2.38;;;24.50;55.50;;;;;;6105601;23;19992;-72
2022/06/16 10:34:38;;;;;;;5.25;2.50;;;24.80;55.50;;;;;;6105389;23;20010;-72
2022/06/16 10:37:27;;;;;;;5.93;3.00;;;24.90;53.40;;;;;;6104580;23;20013;-69
2022/06/16 10:40:04;;;;;;;7.40;2.95;;;24.80;52.60;;;;;;6153688;23;20364;-72
2022/06/16 10:46:30;;;;;;;9.35;2.65;;;24.80;54.70;;;;;;6111108;23;20021;-79
2022/06/16 10:49:16;;;;;;;7.63;2.58;;;24.60;55.00;;;;;;6105211;23;20017;-81
2022/06/16 10:52:28;;;;;;;6.35;2.25;;;24.50;54.80;;;;;;6129670;23;20048;-80
2022/06/16 10:55:19;;;;;;;28.00;3.88;;;24.70;55.40;;;;;;6097531;23;20025;-79
2022/06/16 10:58:07;;;;;;;7.88;3.28;;;24.70;56.10;;;;;;6130700;23;20013;-81
2022/06/16 11:00:38;;;;;;;7.88;2.30;;;24.80;53.10;;;;;;6155176;23;20025;-79
2022/06/16 11:03:22;;;;;;;11.23;2.70;;;24.90;52.90;;;;;;6131254;23;20338;-82
2022/06/16 11:06:16;;;;;;;8.88;2.55;;;24.70;53.30;;;;;;6130374;23;20347;-74
2022/06/16 11:09:13;;;;;;;8.40;2.20;;;24.50;53.10;;;;;;6130709;23;20017;-75
2022/06/16 11:11:58;;;;;;;7.35;2.42;;;24.50;53.30;;;;;;6125969;23;20523;-75
2022/06/16 11:14:55;;;;;;;4.95;2.00;;;24.60;53.40;;;;;;6130115;23;20064;-75
2022/06/16 11:18:04;;;;;;;7.43;2.22;;;24.70;53.20;;;;;;6096529;23;20479;-74
2022/06/16 11:21:37;;;;;;;3.92;1.98;;;24.60;52.10;;;;;;6092786;23;20038;-75
2022/06/16 11:32:37;;;;;;;6.55;2.20;;;25.00;51.70;;;;;;6028369;23;20089;-75
2022/06/16 11:35:59;;;;;;;4.45;1.90;;;25.20;51.10;;;;;;6020740;23;20018;-74
2022/06/16 11:39:13;;;;;;;11.57;2.60;;;25.30;51.20;;;;;;6067199;23;20019;-75
2022/06/16 11:42:21;;;;;;;5.82;2.42;;;25.30;49.00;;;;;;6017911;23;20177;-75
2022/06/16 11:49:11;;;;;;;6.50;2.10;;;25.30;52.50;;;;;;6025140;23;20299;-75
2022/06/16 11:52:28;;;;;;;4.95;2.33;;;25.60;51.50;;;;;;6022135;23;20102;-74
2022/06/16 11:55:24;;;;;;;61.50;7.38;;;25.60;51.70;;;;;;6112291;23;20348;-74
2022/06/16 11:58:19;;;;;;;14.35;2.33;;;25.50;50.60;;;;;;6130723;23;20072;-75
2022/06/16 12:01:30;;;;;;;3.95;1.80;;;25.60;52.10;;;;;;6132982;23;20392;-75
2022/06/16 12:04:46;;;;;;;;;;;;;;;;;;;;;
2022/06/16 12:07:52;;;;;;;5.35;1.77;;;25.80;51.90;;;;;;6109225;23;20088;-75
2022/06/16 12:11:03;;;;;;;10.48;2.17;;;25.70;52.90;;;;;;6105276;23;20340;-75
2022/06/16 13:02:42;;;;;;;7.57;2.20;;;25.80;53.50;;;;;;5981156;23;20030;-77
2022/06/16 13:05:15;;;;;;;6.10;2.05;;;25.60;52.80;;;;;;5981167;23;20115;-72
2022/06/16 13:24:22;;;;;;;;;;;;;;;;;;;;;
2022/06/16 13:27:12;;;;;;;9.30;2.10;;;26.20;52.20;;;;;;6012879;23;20080;-77
2022/06/16 13:30:18;;;;;;;4.85;1.77;;;26.10;51.10;;;;;;6127682;23;20017;-78
2022/06/16 13:32:47;;;;;;;4.57;1.73;;;26.20;51.60;;;;;;6134466;23;20049;-81
2022/06/16 13:35:12;;;;;;;6.00;1.67;;;26.10;53.00;;;;;;6170601;23;20045;-78
2022/06/16 13:38:09;;;;;;;4.43;1.67;;;26.30;53.60;;;;;;6143391;23;20410;-80
2022/06/16 13:40:40;;;;;;;3.80;1.65;;;26.30;52.60;;;;;;6096802;23;20018;-79
2022/06/16 13:43:07;;;;;;;5.25;1.85;;;26.30;51.90;;;;;;6156101;23;20013;-78
2022/06/16 14:11:58;;;;;;;11.65;1.70;;;26.70;51.70;;;;;;6005506;23;20099;-74
2022/06/16 14:14:58;;;;;;;9.27;2.00;;;26.70;51.30;;;;;;6015201;23;20020;-75
2022/06/16 14:18:13;;;;;;;6.80;1.85;;;26.70;49.60;;;;;;6121101;23;20021;-74
2022/06/16 14:20:41;;;;;;;10.23;2.05;;;26.80;50.40;;;;;;6129929;23;20127;-75
2022/06/16 14:23:26;;;;;;;7.80;2.00;;;27.00;48.70;;;;;;6106225;23;20026;-74
2022/06/16 14:26:03;;;;;;;5.55;2.17;;;27.20;49.90;;;;;;6129811;23;20036;-75
2022/06/16 14:28:35;;;;;;;6.30;2.28;;;27.20;49.80;;;;;;6129422;23;20021;-75
2022/06/16 14:31:25;;;;;;;4.22;1.90;;;27.40;50.20;;;;;;6105859;23;20021;-75
2022/06/16 14:34:23;;;;;;;5.75;1.77;;;27.50;50.20;;;;;;6131245;23;20408;-74
2022/06/16 14:36:54;;;;;;;6.38;2.20;;;27.60;48.40;;;;;;6157171;23;20333;-74
2022/06/16 14:39:34;;;;;;;4.82;1.90;;;27.20;48.60;;;;;;6156500;23;20014;-74
2022/06/16 14:42:07;;;;;;;5.80;2.15;;;27.30;47.00;;;;;;6132264;23;20021;-74
2022/06/16 14:48:23;;;;;;;6.30;1.55;;;27.40;49.50;;;;;;6149537;23;20021;-70
2022/06/16 14:50:53;;;;;;;3.50;1.50;;;27.80;48.60;;;;;;6131434;23;20076;-70
2022/06/16 14:53:28;;;;;;;39.42;4.40;;;28.00;48.30;;;;;;6157667;23;20073;-69
2022/06/16 14:56:04;;;;;;;8.35;1.83;;;28.00;47.70;;;;;;6131885;23;20443;-69
2022/06/16 14:58:49;;;;;;;8.43;2.00;;;28.10;47.30;;;;;;6131812;23;20013;-70
2022/06/16 15:01:17;;;;;;;40.58;3.33;;;28.00;47.00;;;;;;6131506;23;20049;-69
2022/06/16 15:03:46;;;;;;;9.23;2.58;;;27.80;47.50;;;;;;6131515;23;20022;-69
2022/06/16 15:06:14;;;;;;;6.15;2.40;;;28.00;45.80;;;;;;6130998;23;20018;-69
2022/06/16 15:08:47;;;;;;;5.40;1.90;;;28.10;46.40;;;;;;6131551;23;20344;-69
2022/06/16 15:11:18;;;;;;;4.35;2.00;;;28.10;46.40;;;;;;6131069;23;20455;-69
2022/06/16 15:13:48;;;;;;;5.68;1.80;;;28.10;46.00;;;;;;6107107;23;20029;-69
2022/06/16 15:19:04;;;;;;;11.95;2.25;;;28.30;43.30;;;;;;6157418;23;20025;-69
2022/06/16 15:21:30;;;;;;;5.95;1.77;;;28.20;45.30;;;;;;6155649;23;20028;-70
2022/06/16 15:23:58;;;;;;;4.03;1.60;;;28.00;45.10;;;;;;6131450;23;20024;-70
2022/06/16 15:26:27;;;;;;;15.48;2.10;;;28.10;46.20;;;;;;6130789;23;20032;-69
2022/06/16 15:29:14;;;;;;;8.93;2.38;;;28.50;46.80;;;;;;6131236;23;20448;-68
2022/06/16 15:31:54;;;;;;;6.47;2.20;;;28.50;46.00;;;;;;6131309;23;20014;-69
2022/06/16 15:37:11;;;;;;;5.10;2.00;;;28.40;46.00;;;;;;6130793;23;20022;-70
2022/06/16 15:39:41;;;;;;;6.28;1.73;;;28.20;45.90;;;;;;6130751;23;20017;-72
2022/06/16 15:42:16;;;;;;;6.28;2.03;;;28.00;46.40;;;;;;6130707;23;20036;-67
2022/06/16 15:44:46;;;;;;;7.60;2.50;;;27.60;45.40;;;;;;6155153;23;20021;-70
2022/06/16 15:47:20;;;;;;;5.93;1.90;;;27.10;45.30;;;;;;6106725;23;20013;-71
2022/06/16 15:49:48;;;;;;;5.72;1.92;;;26.60;47.00;;;;;;6131060;23;20013;-71
2022/06/16 15:52:22;;;;;;;5.72;2.05;;;26.10;48.20;;;;;;6164873;23;20017;-68
2022/06/16 15:54:52;;;;;;;5.25;2.38;;;25.60;48.80;;;;;;6159259;23;20152;-69
2022/06/16 15:57:20;;;;;;;6.32;2.00;;;25.40;50.60;;;;;;6155252;23;20024;-69
2022/06/16 15:59:46;;;;;;;6.25;1.98;;;25.20;50.50;;;;;;6156824;23;20010;-70
2022/06/16 16:02:14;;;;;;;5.95;2.20;;;25.10;51.30;;;;;;6155719;23;20013;-70
2022/06/16 16:04:40;;;;;;;3.65;1.75;;;24.90;52.80;;;;;;6156860;23;20468;-72
2022/06/16 16:07:06;;;;;;;4.38;2.03;;;24.80;52.40;;;;;;6106481;23;20021;-70
2022/06/16 16:09:33;;;;;;;8.23;2.33;;;24.70;52.80;;;;;;6131177;23;20024;-71
2022/06/16 16:12:07;;;;;;;5.25;2.20;;;24.60;53.20;;;;;;6155259;23;20022;-70
2022/06/16 16:15:02;;;;;;;10.40;2.33;;;24.50;55.80;;;;;;6157209;23;20352;-71
2022/06/16 16:17:43;;;;;;;5.88;2.50;;;24.40;57.10;;;;;;6158289;23;20340;-72
2022/06/16 16:20:19;;;;;;;6.30;2.35;;;24.30;55.90;;;;;;6136309;23;20017;-70
2022/06/16 16:22:56;;;;;;;6.82;2.83;;;24.10;56.30;;;;;;6161912;23;20021;-70
2022/06/16 16:25:44;;;;;;;9.57;2.33;;;24.00;58.50;;;;;;6157090;23;20073;-71
2022/06/16 16:28:24;;;;;;;10.10;2.67;;;23.90;58.40;;;;;;6177981;23;20065;-69
2022/06/16 16:30:52;;;;;;;8.88;3.15;;;23.80;58.40;;;;;;6152284;23;20022;-67
2022/06/16 16:44:33;;;;;;;8.23;3.42;;;24.00;58.50;;;;;;6066162;23;20017;-75
2022/06/16 16:47:11;;;;;;;4.95;2.60;;;23.80;58.30;;;;;;6042402;23;20078;-70
2022/06/16 16:49:58;;;;;;;10.05;2.80;;;23.80;58.20;;;;;;6155056;23;20018;-69
2022/06/16 16:52:32;;;;;;;7.68;2.97;;;23.80;58.70;;;;;;6130797;23;20010;-71
2022/06/16 16:55:14;;;;;;;7.38;3.17;;;23.70;58.30;;;;;;6130240;23;20093;-70
2022/06/16 16:57:40;;;;;;;5.38;2.75;;;23.70;58.70;;;;;;6130496;23;20010;-71
2022/06/16 17:00:10;;;;;;;5.93;2.55;;;23.80;58.60;;;;;;6130451;23;20444;-71
2022/06/16 17:02:36;;;;;;;7.50;2.90;;;23.90;58.60;;;;;;6130380;23;20013;-70
2022/06/16 17:05:03;;;;;;;8.45;2.50;;;24.00;58.40;;;;;;6130260;23;20036;-71
2022/06/16 17:07:30;;;;;;;9.05;2.33;;;24.20;58.40;;;;;;6156298;23;20033;-71
2022/06/16 17:09:56;;;;;;;6.68;2.47;;;24.30;58.60;;;;;;6130140;23;20025;-70
2022/06/16 17:12:22;;;;;;;6.65;2.75;;;24.20;58.60;;;;;;6125163;23;20022;-70
2022/06/16 17:14:48;;;;;;;6.97;2.30;;;24.00;58.10;;;;;;6125277;23;20073;-71
2022/06/16 17:17:19;;;;;;;7.97;2.40;;;24.10;58.60;;;;;;6125161;23;20049;-71
2022/06/16 17:19:46;;;;;;;4.57;1.80;;;23.90;58.20;;;;;;6101333;23;20022;-70
2022/06/16 17:22:12;;;;;;;10.25;2.40;;;23.80;57.70;;;;;;6100965;23;20010;-70
2022/06/16 17:24:38;;;;;;;8.07;2.25;;;23.60;57.20;;;;;;6076848;23;20055;-70
2022/06/16 17:27:06;;;;;;;4.68;2.25;;;23.50;57.50;;;;;;6100857;23;20022;-71
2022/06/16 17:29:34;;;;;;;6.88;2.08;;;23.40;58.30;;;;;;6125640;23;20018;-70
2022/06/16 17:32:06;;;;;;;6.03;2.38;;;23.20;58.90;;;;;;6100955;23;20337;-70
2022/06/16 17:34:37;;;;;;;7.13;2.25;;;23.20;59.10;;;;;;6125318;23;20026;-71
2022/06/16 17:37:04;;;;;;;4.47;2.60;;;23.10;58.90;;;;;;6126794;23;20185;-71
2022/06/16 17:39:34;;;;;;;7.78;2.90;;;23.00;59.00;;;;;;6100725;23;20018;-70
2022/06/16 17:42:01;;;;;;;8.57;2.42;;;22.80;60.10;;;;;;6101060;23;20097;-69
2022/06/16 17:44:27;;;;;;;6.72;3.00;;;22.80;59.70;;;;;;6125026;23;20018;-71
2022/06/16 17:46:56;;;;;;;7.22;2.90;;;22.80;59.30;;;;;;6124488;23;20061;-70
2022/06/16 17:49:29;;;;;;;7.13;2.80;;;22.70;60.30;;;;;;6100419;23;20018;-70
2022/06/16 18:00:18;;;;;;;4.93;2.58;;;22.40;60.20;;;;;;6099729;23;20022;-69
2022/06/16 18:03:02;;;;;;;;;;;22.30;60.20;;;;;;6101174;23;20018;-72
2022/06/16 18:05:35;;;;;;;8.45;3.85;;;22.20;62.50;;;;;;6100452;23;19912;-71
2022/06/16 18:08:03;;;;;;;9.07;3.38;;;22.30;59.30;;;;;;6151000;23;20014;-70
2022/06/16 18:10:39;;;;;;;11.38;3.90;;;22.00;60.10;;;;;;6078754;23;20421;-70
2022/06/16 18:13:08;;;;;;;8.65;3.22;;;21.80;61.20;;;;;;6126335;23;20041;-72
2022/06/16 18:15:56;;;;;;;7.45;3.72;;;21.70;61.80;;;;;;6102526;23;20025;-72
2022/06/16 18:21:31;;;;;;;7.60;3.53;;;21.60;63.60;;;;;;6091966;23;20037;-72
2022/06/16 18:23:59;;;;;;;7.72;3.05;;;21.60;64.90;;;;;;6102736;23;20072;-71
2022/06/16 18:26:27;;;;;;;7.05;2.80;;;21.60;64.90;;;;;;6128289;23;20093;-72
2022/06/16 18:28:57;;;;;;;6.43;3.33;;;21.60;64.90;;;;;;6102677;23;20060;-72
2022/06/16 18:31:24;;;;;;;7.57;3.53;;;21.70;65.00;;;;;;6102022;23;20018;-71
2022/06/16 18:33:50;;;;;;;9.15;3.75;;;21.70;65.20;;;;;;6102462;23;20025;-73
2022/06/16 18:37:12;;;;;;;9.55;3.45;;;21.60;65.50;;;;;;6101890;23;20049;-75
2022/06/16 18:40:09;;;;;;;6.22;3.22;;;21.50;66.50;;;;;;6101783;23;20440;-73
2022/06/16 18:42:39;;;;;;;7.28;3.08;;;21.30;66.70;;;;;;6101899;23;20017;-73
2022/06/16 18:45:24;;;;;;;10.23;3.88;;;21.10;66.00;;;;;;6102340;23;20032;-74
2022/06/16 18:47:56;;;;;;;6.43;3.85;;;21.00;67.00;;;;;;6101375;23;20009;-73
2022/06/16 18:50:27;;;;;;;6.88;3.92;;;21.00;66.60;;;;;;6125739;23;20453;-74
2022/06/16 18:52:55;;;;;;;5.80;3.10;;;20.70;67.80;;;;;;6101876;23;20053;-73
2022/06/16 18:55:27;;;;;;;6.68;3.58;;;20.50;68.40;;;;;;6101517;23;20045;-73
2022/06/16 18:58:21;;;;;;;;;;;;;;;;;;;;;
